Time;durP1;ratioP1;P1;durP2;ratioP2;P2;SDS_P1;SDS_P2;PMS_P1;PMS_P2;Temp;Humidity;BMP_temperature;BMP_pressure;BME280_temperature;BME280_humidity;BME280_pressure;Samples;Min_cycle;Max_cycle;Signal;HPM_P1;HPM_P2
2022/03/14 00:01:36;;;;;;;3.90;3.70;;;10.70;1.00;;;;;;4954727;28;20217;-69
2022/03/14 00:04:02;;;;;;;3.83;3.63;;;10.70;1.00;;;;;;4954835;28;20180;-70
2022/03/14 00:06:28;;;;;;;3.93;3.70;;;10.70;1.00;;;;;;4954777;28;20256;-69
2022/03/14 00:08:55;;;;;;;4.70;4.30;;;10.70;1.00;;;;;;4954911;28;20188;-69
2022/03/14 00:11:22;;;;;;;3.90;3.70;;;10.60;1.00;;;;;;4954473;28;20683;-69
2022/03/14 00:13:50;;;;;;;3.90;3.70;;;10.60;1.00;;;;;;4954705;28;20291;-69
2022/03/14 00:16:23;;;;;;;4.00;3.70;;;10.50;1.00;;;;;;4954765;28;20169;-69
2022/03/14 00:18:51;;;;;;;4.23;3.87;;;10.40;1.00;;;;;;4954877;28;20169;-70
2022/03/14 00:21:19;;;;;;;4.67;4.27;;;10.40;1.00;;;;;;4954692;28;20184;-70
2022/03/14 00:23:44;;;;;;;4.30;4.00;;;10.40;1.00;;;;;;4954589;28;20173;-70
2022/03/14 00:26:11;;;;;;;4.30;4.00;;;10.50;1.00;;;;;;4954421;28;20188;-69
2022/03/14 00:28:37;;;;;;;4.30;4.00;;;10.50;1.00;;;;;;4954430;28;20232;-69
2022/03/14 00:31:02;;;;;;;4.03;3.73;;;10.60;1.00;;;;;;4954602;28;20525;-69
2022/03/14 00:33:28;;;;;;;4.53;4.23;;;10.60;1.00;;;;;;4954508;28;20184;-70
2022/03/14 00:35:56;;;;;;;3.83;3.63;;;10.60;1.00;;;;;;4954680;28;20227;-70
2022/03/14 00:38:24;;;;;;;3.90;3.60;;;10.40;1.00;;;;;;4954672;28;20172;-69
2022/03/14 00:40:50;;;;;;;3.83;3.63;;;10.40;1.00;;;;;;4954296;28;20311;-69
2022/03/14 00:43:15;;;;;;;3.93;3.60;;;10.40;1.00;;;;;;4954493;28;20169;-70
2022/03/14 00:45:41;;;;;;;4.27;3.97;;;10.40;1.00;;;;;;4954633;28;20165;-69
2022/03/14 00:48:07;;;;;;;4.33;4.03;;;10.40;1.00;;;;;;4954358;28;20686;-70
2022/03/14 00:50:34;;;;;;;3.90;3.70;;;10.40;1.00;;;;;;4954481;28;20235;-69
2022/03/14 00:52:59;;;;;;;4.33;4.03;;;10.40;1.00;;;;;;4954363;28;20181;-69
2022/03/14 00:55:25;;;;;;;4.50;4.10;;;10.40;1.00;;;;;;4954742;28;20173;-70
2022/03/14 00:57:51;;;;;;;4.17;3.87;;;10.30;1.00;;;;;;4957918;28;20165;-69
2022/03/14 01:00:16;;;;;;;4.13;3.83;;;10.30;1.00;;;;;;4957729;28;20255;-69
2022/03/14 01:02:43;;;;;;;4.20;3.90;;;10.20;1.00;;;;;;4957669;28;20201;-70
2022/03/14 01:05:09;;;;;;;4.40;4.00;;;10.20;1.00;;;;;;4956637;29;20196;-69
2022/03/14 01:07:35;;;;;;;4.30;4.00;;;10.20;1.90;;;;;;4957786;28;20220;-69
2022/03/14 01:10:03;;;;;;;4.83;4.03;;;10.20;2.10;;;;;;4957563;28;20181;-69
2022/03/14 01:12:29;;;;;;;4.60;4.23;;;10.10;1.50;;;;;;4957616;28;20188;-70
2022/03/14 01:14:56;;;;;;;4.63;4.33;;;10.20;3.60;;;;;;4957702;28;20239;-69
2022/03/14 01:17:21;;;;;;;4.83;4.53;;;10.10;2.80;;;;;;4957343;28;20180;-70
2022/03/14 01:19:47;;;;;;;5.33;4.87;;;10.10;7.70;;;;;;4957580;28;20227;-69
2022/03/14 01:22:13;;;;;;;5.40;5.00;;;10.10;8.50;;;;;;4957470;28;20184;-69
2022/03/14 01:24:38;;;;;;;5.83;5.33;;;10.20;8.80;;;;;;4957153;28;20169;-69
2022/03/14 01:27:06;;;;;;;5.90;5.40;;;10.20;6.60;;;;;;4957350;28;20240;-70
2022/03/14 01:29:31;;;;;;;5.60;5.20;;;10.20;6.80;;;;;;4957209;28;20235;-69
2022/03/14 01:31:58;;;;;;;6.17;5.77;;;10.20;8.40;;;;;;4957013;28;20176;-69
2022/03/14 01:34:24;;;;;;;6.40;5.90;;;10.30;9.60;;;;;;4956340;28;20567;-70
2022/03/14 01:36:50;;;;;;;6.97;6.40;;;10.20;8.20;;;;;;4957176;28;20192;-69
2022/03/14 01:39:16;;;;;;;7.50;6.80;;;10.20;10.20;;;;;;4957154;28;20659;-70
2022/03/14 01:41:41;;;;;;;7.47;6.77;;;10.10;11.60;;;;;;4957138;28;20176;-69
2022/03/14 01:44:07;;;;;;;8.30;7.30;;;10.00;18.80;;;;;;4957104;28;20180;-69
2022/03/14 01:46:33;;;;;;;7.63;6.97;;;9.90;25.90;;;;;;4956702;28;20626;-69
2022/03/14 01:49:00;;;;;;;7.80;7.20;;;9.90;27.80;;;;;;4957106;28;20239;-69
2022/03/14 01:51:25;;;;;;;7.70;7.00;;;10.00;26.20;;;;;;4955999;29;20519;-70
2022/03/14 01:53:53;;;;;;;9.20;7.33;;;10.00;22.30;;;;;;4955644;28;20184;-69
2022/03/14 01:56:19;;;;;;;8.37;7.67;;;10.00;22.10;;;;;;4956805;28;20252;-70
2022/03/14 01:58:46;;;;;;;8.73;8.03;;;10.10;21.20;;;;;;4956831;28;20205;-70
2022/03/14 02:01:13;;;;;;;8.47;7.70;;;10.10;15.10;;;;;;4956811;28;20173;-69
2022/03/14 02:03:38;;;;;;;8.23;7.47;;;10.10;9.60;;;;;;4956661;28;20250;-69
2022/03/14 02:06:04;;;;;;;8.97;8.10;;;10.00;15.60;;;;;;4956846;28;20208;-69
2022/03/14 02:08:30;;;;;;;9.30;8.40;;;9.90;19.40;;;;;;4956212;28;20216;-69
2022/03/14 02:10:55;;;;;;;9.13;8.33;;;9.90;24.50;;;;;;4956509;28;20173;-70
2022/03/14 02:13:22;;;;;;;10.23;9.33;;;10.00;21.90;;;;;;4956524;28;20617;-69
2022/03/14 02:15:47;;;;;;;10.63;9.67;;;10.10;15.00;;;;;;4956463;28;20181;-70
2022/03/14 02:18:13;;;;;;;11.13;9.37;;;10.10;11.90;;;;;;4956446;28;20176;-69
2022/03/14 02:20:38;;;;;;;10.77;9.67;;;10.10;13.70;;;;;;4956504;28;20577;-69
2022/03/14 02:23:04;;;;;;;10.43;9.43;;;10.10;13.00;;;;;;4955998;28;20207;-69
2022/03/14 02:25:32;;;;;;;10.87;9.97;;;10.10;10.70;;;;;;4955267;28;20267;-69
2022/03/14 02:27:58;;;;;;;10.97;9.97;;;10.20;10.50;;;;;;4955957;28;20301;-70
2022/03/14 02:30:23;;;;;;;11.90;10.63;;;10.10;5.60;;;;;;4956358;28;20650;-69
2022/03/14 02:32:49;;;;;;;12.43;11.23;;;10.00;14.10;;;;;;4956036;28;20663;-69
2022/03/14 02:35:15;;;;;;;13.97;11.77;;;10.00;17.00;;;;;;4956462;28;20165;-68
2022/03/14 02:37:41;;;;;;;13.13;11.57;;;10.00;17.90;;;;;;4955797;28;20187;-70
2022/03/14 02:40:07;;;;;;;12.43;11.23;;;10.10;12.20;;;;;;4956299;28;20183;-69
2022/03/14 02:42:33;;;;;;;12.70;11.27;;;10.00;12.80;;;;;;4955839;28;20622;-69
2022/03/14 02:45:00;;;;;;;17.10;15.23;;;10.00;14.30;;;;;;4954730;28;20180;-68
2022/03/14 02:47:26;;;;;;;18.07;14.63;;;10.00;11.40;;;;;;4955824;28;20289;-69
2022/03/14 02:49:51;;;;;;;15.17;13.67;;;10.00;14.60;;;;;;4956084;28;20628;-69
2022/03/14 02:52:17;;;;;;;14.87;13.27;;;10.00;15.30;;;;;;4955523;28;20188;-69
2022/03/14 02:54:43;;;;;;;17.00;13.17;;;10.00;14.90;;;;;;4955944;28;20207;-69
2022/03/14 02:57:09;;;;;;;14.67;12.67;;;9.90;19.20;;;;;;4954552;28;20684;-69
2022/03/14 02:59:34;;;;;;;15.10;13.43;;;9.90;20.60;;;;;;4955704;28;20660;-69
2022/03/14 03:02:00;;;;;;;15.83;13.93;;;9.80;22.10;;;;;;4955707;28;20177;-69
2022/03/14 03:04:26;;;;;;;15.20;13.57;;;9.90;22.60;;;;;;4955527;28;20300;-69
2022/03/14 03:06:54;;;;;;;15.40;13.80;;;9.90;19.90;;;;;;4955299;28;20204;-69
2022/03/14 03:09:19;;;;;;;16.30;14.60;;;9.80;22.90;;;;;;4955750;28;20621;-69
2022/03/14 03:11:45;;;;;;;15.23;13.60;;;9.80;21.70;;;;;;4955404;28;20169;-69
2022/03/14 03:14:10;;;;;;;19.67;15.07;;;9.80;23.00;;;;;;4955405;28;20176;-69
2022/03/14 03:16:37;;;;;;;15.10;13.50;;;9.90;24.30;;;;;;4955534;28;20541;-69
2022/03/14 03:19:06;;;;;;;15.73;13.80;;;9.80;20.40;;;;;;4955125;28;20180;-69
2022/03/14 03:21:34;;;;;;;19.60;13.77;;;9.80;23.50;;;;;;4955030;28;20165;-69
2022/03/14 03:24:00;;;;;;;18.07;14.17;;;9.80;19.30;;;;;;4955341;28;20490;-69
2022/03/14 03:26:25;;;;;;;16.37;13.50;;;9.90;21.30;;;;;;4955273;28;20173;-69
2022/03/14 03:28:51;;;;;;;18.80;13.53;;;9.90;12.40;;;;;;4955366;28;20576;-69
2022/03/14 03:31:18;;;;;;;15.83;13.13;;;10.00;15.70;;;;;;4955152;28;20168;-68
2022/03/14 03:33:45;;;;;;;15.23;13.03;;;10.00;14.90;;;;;;4955213;28;20172;-68
2022/03/14 03:36:11;;;;;;;19.63;12.60;;;10.10;5.60;;;;;;4954885;28;20200;-69
2022/03/14 03:38:37;;;;;;;14.20;12.53;;;10.10;4.40;;;;;;4955410;28;20208;-70
2022/03/14 03:41:03;;;;;;;18.03;12.80;;;10.10;4.00;;;;;;4954852;28;20172;-69
2022/03/14 03:43:29;;;;;;;15.07;12.00;;;10.20;1.00;;;;;;4955123;28;20661;-68
2022/03/14 03:45:55;;;;;;;15.83;12.30;;;10.10;2.00;;;;;;4955089;28;20175;-68
2022/03/14 03:48:20;;;;;;;14.50;12.77;;;10.10;1.00;;;;;;4954631;28;20284;-70
2022/03/14 03:50:46;;;;;;;17.13;13.03;;;10.10;1.00;;;;;;4954901;28;20181;-69
2022/03/14 03:53:12;;;;;;;15.57;12.33;;;10.10;1.00;;;;;;4954890;28;20708;-68
2022/03/14 03:55:38;;;;;;;15.23;12.07;;;10.10;1.00;;;;;;4954982;28;20675;-69
2022/03/14 03:58:03;;;;;;;14.23;12.43;;;10.10;1.00;;;;;;4953552;28;20550;-68
2022/03/14 04:00:29;;;;;;;16.20;12.60;;;10.10;1.00;;;;;;4954918;28;20181;-69
2022/03/14 04:02:56;;;;;;;14.40;12.87;;;10.10;1.00;;;;;;4954541;28;20188;-69
2022/03/14 04:05:22;;;;;;;15.80;12.90;;;10.10;1.00;;;;;;4955038;28;20203;-69
2022/03/14 04:07:48;;;;;;;12.53;11.23;;;10.00;2.60;;;;;;4954712;28;20211;-69
2022/03/14 04:10:15;;;;;;;17.10;12.03;;;10.00;3.30;;;;;;4954632;28;20204;-69
2022/03/14 04:12:42;;;;;;;16.03;12.53;;;10.10;4.70;;;;;;4954835;28;20189;-69
2022/03/14 04:15:09;;;;;;;19.33;13.03;;;10.00;3.80;;;;;;4955087;28;20165;-69
2022/03/14 04:17:40;;;;;;;18.07;12.47;;;10.00;5.00;;;;;;4954499;28;20267;-70
2022/03/14 04:20:08;;;;;;;17.17;11.60;;;10.10;4.40;;;;;;4954538;28;20531;-69
2022/03/14 04:22:38;;;;;;;14.73;12.77;;;10.10;1.00;;;;;;4954451;28;20180;-69
2022/03/14 04:25:05;;;;;;;15.33;11.47;;;10.10;1.00;;;;;;4954834;28;20177;-69
2022/03/14 04:27:32;;;;;;;16.43;11.97;;;10.10;1.00;;;;;;4954357;28;20208;-69
2022/03/14 04:29:58;;;;;;;15.43;11.60;;;10.10;1.00;;;;;;4954450;28;20228;-68
2022/03/14 04:32:24;;;;;;;14.30;11.10;;;10.00;1.00;;;;;;4957758;28;20190;-69
2022/03/14 04:34:50;;;;;;;16.53;11.63;;;10.00;1.00;;;;;;4957800;28;20204;-69
2022/03/14 04:37:15;;;;;;;14.53;11.53;;;10.00;1.70;;;;;;4956467;28;20194;-69
2022/03/14 04:39:42;;;;;;;14.87;11.53;;;9.90;1.00;;;;;;4958127;28;20179;-69
2022/03/14 04:42:09;;;;;;;14.80;11.53;;;10.00;3.30;;;;;;4957772;28;20185;-69
2022/03/14 04:44:34;;;;;;;14.00;11.17;;;10.00;4.30;;;;;;4957917;28;20169;-70
2022/03/14 04:47:00;;;;;;;15.03;11.17;;;10.00;1.00;;;;;;4957255;28;20675;-69
2022/03/14 04:49:27;;;;;;;15.47;11.03;;;9.90;2.30;;;;;;4958152;28;20234;-69
2022/03/14 04:51:55;;;;;;;14.10;11.33;;;9.90;2.30;;;;;;4957521;28;20188;-69
2022/03/14 04:54:23;;;;;;;16.43;11.50;;;10.00;2.90;;;;;;4957431;28;20706;-69
2022/03/14 04:56:49;;;;;;;14.03;11.40;;;10.00;1.00;;;;;;4957994;28;20181;-69
2022/03/14 04:59:14;;;;;;;17.10;10.70;;;10.00;2.30;;;;;;4957747;28;20180;-69
2022/03/14 05:01:40;;;;;;;15.20;11.10;;;10.10;1.00;;;;;;4957345;28;20188;-69
2022/03/14 05:04:06;;;;;;;13.83;11.27;;;10.10;1.00;;;;;;4957449;28;20197;-69
2022/03/14 05:06:35;;;;;;;14.03;10.70;;;10.20;1.00;;;;;;4957015;28;20251;-69
2022/03/14 05:09:01;;;;;;;17.53;11.43;;;10.20;1.00;;;;;;4957361;28;20177;-69
2022/03/14 05:11:27;;;;;;;15.33;11.13;;;10.20;1.00;;;;;;4956855;28;20176;-69
2022/03/14 05:13:53;;;;;;;14.47;11.50;;;10.20;1.00;;;;;;4957199;28;20176;-70
2022/03/14 05:16:20;;;;;;;15.67;11.40;;;10.20;1.00;;;;;;4956874;28;20173;-69
2022/03/14 05:18:46;;;;;;;17.00;12.03;;;10.30;1.00;;;;;;4957413;28;20188;-69
2022/03/14 05:21:13;;;;;;;14.50;11.03;;;10.30;1.00;;;;;;4956652;28;20177;-69
2022/03/14 05:23:39;;;;;;;14.20;11.17;;;10.20;1.00;;;;;;4957152;28;20568;-70
2022/03/14 05:26:05;;;;;;;16.87;12.07;;;10.20;1.00;;;;;;4955702;28;20176;-69
2022/03/14 05:28:30;;;;;;;15.53;11.67;;;10.20;1.00;;;;;;4957107;28;20239;-70
2022/03/14 05:30:57;;;;;;;15.37;11.87;;;10.30;1.00;;;;;;4956824;28;20196;-69
2022/03/14 05:33:23;;;;;;;16.33;11.23;;;10.20;1.00;;;;;;4956733;28;20189;-69
2022/03/14 05:35:49;;;;;;;16.47;11.80;;;10.20;1.00;;;;;;4956689;28;20184;-70
2022/03/14 05:38:15;;;;;;;15.53;11.30;;;10.20;1.00;;;;;;4956588;28;20179;-70
2022/03/14 05:40:41;;;;;;;16.00;11.83;;;10.20;1.00;;;;;;4956940;28;20192;-69
2022/03/14 05:43:08;;;;;;;14.47;12.10;;;10.20;1.00;;;;;;4955967;28;20208;-70
2022/03/14 05:45:34;;;;;;;15.87;12.23;;;10.20;1.00;;;;;;4956238;28;20645;-69
2022/03/14 05:47:59;;;;;;;12.77;11.30;;;10.20;1.00;;;;;;4956438;28;20236;-70
2022/03/14 05:50:25;;;;;;;16.43;11.13;;;10.10;1.00;;;;;;4956270;28;20246;-69
2022/03/14 05:52:52;;;;;;;14.97;11.97;;;10.10;1.00;;;;;;4955925;28;20188;-70
2022/03/14 05:55:18;;;;;;;14.87;11.50;;;10.10;1.00;;;;;;4956579;28;20192;-69
2022/03/14 05:57:44;;;;;;;15.97;12.03;;;10.00;1.00;;;;;;4956370;28;20605;-69
2022/03/14 06:00:12;;;;;;;16.07;12.40;;;10.10;1.00;;;;;;4954510;28;20263;-69
2022/03/14 06:02:39;;;;;;;14.03;11.23;;;10.20;1.00;;;;;;4956136;28;20169;-69
2022/03/14 06:05:05;;;;;;;13.90;11.53;;;10.20;1.00;;;;;;4955784;28;20682;-69
2022/03/14 06:07:31;;;;;;;17.23;12.23;;;10.30;1.00;;;;;;4955723;28;20224;-70
2022/03/14 06:09:58;;;;;;;14.27;11.53;;;10.10;1.00;;;;;;4954925;28;20185;-70
2022/03/14 06:12:25;;;;;;;12.53;10.70;;;9.90;4.10;;;;;;4954780;28;20256;-70
2022/03/14 06:14:52;;;;;;;15.80;11.83;;;9.80;4.50;;;;;;4955672;28;20238;-70
2022/03/14 06:17:19;;;;;;;14.80;11.50;;;9.90;6.00;;;;;;4953777;28;20219;-70
2022/03/14 06:19:44;;;;;;;15.57;10.80;;;9.90;3.40;;;;;;4955440;28;20204;-70
2022/03/14 06:22:10;;;;;;;15.10;11.53;;;9.90;1.00;;;;;;4955578;28;20527;-69
2022/03/14 06:24:35;;;;;;;14.03;11.37;;;9.90;4.80;;;;;;4955394;28;20176;-70
2022/03/14 06:27:02;;;;;;;16.40;10.93;;;9.80;3.10;;;;;;4955036;28;20680;-70
2022/03/14 06:29:27;;;;;;;13.43;11.23;;;9.80;3.50;;;;;;4954339;28;20243;-69
2022/03/14 06:31:53;;;;;;;21.20;11.70;;;9.90;6.10;;;;;;4954764;28;20181;-70
2022/03/14 06:34:18;;;;;;;17.10;11.13;;;10.10;1.00;;;;;;4955119;28;20276;-69
2022/03/14 06:36:46;;;;;;;13.97;10.80;;;10.10;1.00;;;;;;4954844;28;20212;-70
2022/03/14 06:39:11;;;;;;;17.67;10.10;;;10.20;1.00;;;;;;4954903;28;20204;-70
2022/03/14 06:41:39;;;;;;;22.60;10.30;;;10.10;1.00;;;;;;4954531;28;20181;-69
2022/03/14 06:44:05;;;;;;;15.17;10.43;;;10.10;1.00;;;;;;4954355;28;20511;-68
2022/03/14 06:46:31;;;;;;;17.33;10.80;;;9.90;1.00;;;;;;4954365;28;20228;-70
2022/03/14 06:48:57;;;;;;;17.10;10.03;;;10.00;1.00;;;;;;4953313;28;20216;-70
2022/03/14 06:51:24;;;;;;;13.73;9.97;;;10.00;1.00;;;;;;4952787;28;20180;-70
2022/03/14 06:53:49;;;;;;;16.57;10.40;;;10.10;1.00;;;;;;4953734;28;20180;-70
2022/03/14 06:56:16;;;;;;;11.60;9.70;;;10.20;1.00;;;;;;4952967;28;20257;-70
2022/03/14 06:58:42;;;;;;;13.00;9.53;;;10.20;1.00;;;;;;4954179;28;20267;-69
2022/03/14 07:01:08;;;;;;;13.30;9.23;;;10.30;1.00;;;;;;4954267;28;20740;-70
2022/03/14 07:03:34;;;;;;;13.37;8.97;;;10.20;1.00;;;;;;4954175;28;20179;-70
2022/03/14 07:06:00;;;;;;;12.87;9.37;;;10.20;1.00;;;;;;4953753;28;20236;-70
2022/03/14 07:08:25;;;;;;;10.97;9.00;;;10.30;1.00;;;;;;4954009;28;20295;-70
2022/03/14 07:10:53;;;;;;;16.73;9.00;;;10.30;1.00;;;;;;4954182;28;20596;-70
2022/03/14 07:13:19;;;;;;;12.10;9.20;;;10.30;1.00;;;;;;4952898;28;20267;-69
2022/03/14 07:15:45;;;;;;;13.83;8.70;;;10.40;1.00;;;;;;4954014;28;20308;-70
2022/03/14 07:18:11;;;;;;;12.13;8.90;;;10.30;1.00;;;;;;4954476;28;20243;-70
2022/03/14 07:20:37;;;;;;;11.53;7.73;;;10.20;1.00;;;;;;4954518;28;20173;-70
2022/03/14 07:23:03;;;;;;;12.70;8.07;;;10.20;1.00;;;;;;4952707;28;20183;-72
2022/03/14 07:25:36;;;;;;;13.73;8.53;;;10.20;1.00;;;;;;4953482;28;20259;-70
2022/03/14 07:28:04;;;;;;;11.27;8.07;;;10.40;1.00;;;;;;4953447;28;20247;-69
2022/03/14 07:30:30;;;;;;;13.70;7.73;;;10.30;1.00;;;;;;4953687;28;20214;-69
2022/03/14 07:32:55;;;;;;;14.20;7.97;;;10.30;1.00;;;;;;4952497;29;20198;-70
2022/03/14 07:35:22;;;;;;;15.03;7.83;;;10.30;1.00;;;;;;4953834;28;20180;-70
2022/03/14 07:37:48;;;;;;;15.53;7.40;;;10.30;1.00;;;;;;4953627;28;20181;-71
2022/03/14 07:40:15;;;;;;;13.40;8.03;;;10.30;1.00;;;;;;4953661;28;20240;-70
2022/03/14 07:42:46;;;;;;;14.00;7.63;;;10.40;1.00;;;;;;4953541;28;20602;-70
2022/03/14 07:45:13;;;;;;;15.57;7.47;;;10.50;1.00;;;;;;4954549;28;20210;-70
2022/03/14 07:47:42;;;;;;;11.73;7.60;;;10.50;1.00;;;;;;4952749;28;20208;-69
2022/03/14 07:50:09;;;;;;;17.60;7.80;;;10.60;1.00;;;;;;4953728;28;20176;-69
2022/03/14 07:52:36;;;;;;;13.77;7.33;;;10.70;1.00;;;;;;4954112;28;20217;-71
2022/03/14 07:55:02;;;;;;;12.40;7.80;;;10.80;1.00;;;;;;4953651;28;20173;-70
2022/03/14 07:57:28;;;;;;;12.20;7.13;;;10.80;1.00;;;;;;4953469;28;20243;-70
2022/03/14 07:59:53;;;;;;;12.67;7.70;;;10.70;1.00;;;;;;4953660;28;20184;-70
2022/03/14 08:02:20;;;;;;;12.03;7.00;;;10.60;1.00;;;;;;4951818;28;20647;-71
2022/03/14 08:04:45;;;;;;;13.27;7.10;;;10.60;1.00;;;;;;4949145;28;20202;-70
2022/03/14 08:07:11;;;;;;;10.90;7.13;;;10.50;1.00;;;;;;4956751;28;20216;-70
2022/03/14 08:09:37;;;;;;;16.57;7.03;;;10.60;1.00;;;;;;4950126;29;20173;-70
2022/03/14 08:12:04;;;;;;;10.30;7.30;;;10.60;1.00;;;;;;4950550;28;20225;-70
2022/03/14 08:14:33;;;;;;;14.30;7.03;;;10.60;1.00;;;;;;4954169;28;20712;-69
2022/03/14 08:16:59;;;;;;;10.73;7.13;;;10.60;1.00;;;;;;4956347;29;20180;-68
2022/03/14 08:19:25;;;;;;;10.50;7.20;;;10.70;1.00;;;;;;4942482;28;20188;-70
2022/03/14 08:21:51;;;;;;;15.43;6.73;;;10.70;1.00;;;;;;4952514;29;20271;-70
2022/03/14 08:24:17;;;;;;;10.23;6.73;;;10.90;1.00;;;;;;4943138;29;20177;-70
2022/03/14 08:26:43;;;;;;;8.80;6.33;;;10.90;1.00;;;;;;4957245;28;20180;-70
2022/03/14 08:29:10;;;;;;;13.07;6.50;;;11.20;1.00;;;;;;4957024;28;20239;-70
2022/03/14 08:31:36;;;;;;;12.77;6.30;;;11.30;1.00;;;;;;4957430;28;20180;-70
2022/03/14 08:34:02;;;;;;;11.80;6.60;;;11.40;1.00;;;;;;4955260;28;20239;-71
2022/03/14 08:36:27;;;;;;;9.83;5.37;;;11.60;1.00;;;;;;4956820;28;20188;-70
2022/03/14 08:38:53;;;;;;;7.10;5.80;;;11.70;1.00;;;;;;4955709;28;20255;-70
2022/03/14 08:41:19;;;;;;;14.27;5.53;;;11.70;1.00;;;;;;4951015;28;20188;-70
2022/03/14 08:43:45;;;;;;;15.30;5.80;;;11.50;1.00;;;;;;4951750;28;20653;-70
2022/03/14 08:46:12;;;;;;;14.20;5.53;;;11.50;1.00;;;;;;4955050;28;20199;-70
2022/03/14 08:48:41;;;;;;;12.47;5.47;;;11.50;1.00;;;;;;4955650;28;20251;-69
2022/03/14 08:51:07;;;;;;;11.27;5.23;;;11.70;1.00;;;;;;4943426;28;20184;-70
2022/03/14 08:53:33;;;;;;;11.70;5.60;;;11.70;1.00;;;;;;4952529;29;20190;-71
2022/03/14 08:56:01;;;;;;;14.87;4.87;;;11.80;45.30;;;;;;4953850;28;20210;-70
2022/03/14 08:58:29;;;;;;;14.27;5.27;;;11.80;99.90;;;;;;4953990;28;20192;-70
2022/03/14 09:00:55;;;;;;;13.40;4.80;;;11.80;99.90;;;;;;4949946;28;20173;-70
2022/03/14 09:03:21;;;;;;;15.20;5.00;;;11.90;99.90;;;;;;4949983;28;20181;-69
2022/03/14 09:05:47;;;;;;;13.70;5.13;;;11.70;99.90;;;;;;4952100;28;20187;-71
2022/03/14 09:08:12;;;;;;;13.20;5.53;;;11.70;99.90;;;;;;4948693;28;20275;-70
2022/03/14 09:10:39;;;;;;;12.80;4.73;;;11.90;99.90;;;;;;4954577;28;20183;-69
2022/03/14 09:13:05;;;;;;;11.17;5.13;;;11.90;99.90;;;;;;4954258;28;20255;-69
2022/03/14 09:15:30;;;;;;;12.23;5.13;;;11.90;99.90;;;;;;4943221;28;20222;-71
2022/03/14 09:17:59;;;;;;;12.30;5.17;;;11.90;99.90;;;;;;4946544;28;20234;-70
2022/03/14 09:20:27;;;;;;;13.60;5.80;;;11.80;99.90;;;;;;4949730;28;20233;-70
2022/03/14 09:22:53;;;;;;;13.97;4.90;;;11.90;99.90;;;;;;4946784;28;20191;-70
2022/03/14 09:25:21;;;;;;;10.17;4.93;;;11.80;99.90;;;;;;4953440;28;20208;-70
2022/03/14 09:27:48;;;;;;;12.40;5.00;;;11.90;99.90;;;;;;4948681;28;20216;-70
2022/03/14 09:30:15;;;;;;;16.80;4.60;;;12.10;99.90;;;;;;4946539;28;20236;-70
2022/03/14 09:32:41;;;;;;;15.03;4.60;;;12.00;99.90;;;;;;4951424;28;20655;-70
2022/03/14 09:35:09;;;;;;;12.47;4.80;;;12.10;99.90;;;;;;4950036;28;20236;-70
2022/03/14 09:37:39;;;;;;;9.63;4.53;;;12.30;99.90;;;;;;4955431;28;20169;-70
2022/03/14 09:40:07;;;;;;;18.17;4.97;;;12.20;99.90;;;;;;4954767;28;20183;-70
2022/03/14 09:42:37;;;;;;;14.53;5.27;;;12.30;99.90;;;;;;4954231;28;20184;-69
2022/03/14 09:45:05;;;;;;;15.60;5.00;;;12.40;99.90;;;;;;4951493;28;20188;-71
2022/03/14 09:47:39;;;;;;;13.90;4.70;;;12.80;99.90;;;;;;4951730;28;20221;-70
2022/03/14 09:50:13;;;;;;;14.47;4.87;;;12.90;99.90;;;;;;4944087;29;20177;-70
2022/03/14 09:52:41;;;;;;;18.10;4.80;;;12.70;99.90;;;;;;4949537;28;20574;-72
2022/03/14 09:55:10;;;;;;;16.13;5.03;;;12.60;99.90;;;;;;4953607;28;20188;-70
2022/03/14 09:57:37;;;;;;;11.23;4.70;;;12.40;99.90;;;;;;4953651;28;20208;-70
2022/03/14 10:00:10;;;;;;;15.93;4.83;;;12.60;99.90;;;;;;4943564;28;20224;-70
2022/03/14 10:02:36;;;;;;;17.30;4.70;;;12.50;99.90;;;;;;4951927;28;20207;-70
2022/03/14 10:05:06;;;;;;;15.03;5.07;;;12.30;99.90;;;;;;4951926;28;20255;-71
2022/03/14 10:07:34;;;;;;;13.63;5.37;;;12.50;99.90;;;;;;4951880;28;20220;-70
2022/03/14 10:09:59;;;;;;;11.80;4.60;;;12.60;99.90;;;;;;4943656;28;20701;-70
2022/03/14 10:12:25;;;;;;;13.00;5.00;;;12.70;99.90;;;;;;4948492;28;20271;-70
2022/03/14 10:14:51;;;;;;;13.33;5.33;;;12.70;99.90;;;;;;4947008;28;20287;-70
2022/03/14 10:17:16;;;;;;;11.97;4.63;;;12.80;99.90;;;;;;4951385;28;20667;-70
2022/03/14 10:19:56;;;;;;;13.00;4.97;;;12.60;99.90;;;;;;4955792;28;20186;-70
2022/03/14 10:22:23;;;;;;;10.27;4.77;;;12.80;99.90;;;;;;4947511;28;20184;-71
2022/03/14 10:24:54;;;;;;;16.80;5.63;;;12.60;99.90;;;;;;4946021;28;20180;-70
2022/03/14 10:27:21;;;;;;;14.30;4.93;;;12.60;99.90;;;;;;4952226;28;20228;-70
2022/03/14 10:29:47;;;;;;;14.10;5.00;;;12.70;99.90;;;;;;4950630;28;20243;-70
2022/03/14 10:32:30;;;;;;;17.07;5.50;;;12.80;99.90;;;;;;4945309;28;20622;-70
2022/03/14 10:35:00;;;;;;;12.40;5.00;;;12.80;99.90;;;;;;4946911;28;20176;-70
2022/03/14 10:37:28;;;;;;;17.67;5.60;;;13.00;99.90;;;;;;4950600;28;20707;-70
2022/03/14 10:39:58;;;;;;;17.43;5.27;;;12.90;99.90;;;;;;4948847;28;20199;-70
2022/03/14 10:42:23;;;;;;;14.67;5.40;;;12.80;99.90;;;;;;4947831;28;20188;-70
2022/03/14 10:44:50;;;;;;;15.73;5.23;;;12.70;99.90;;;;;;4944318;28;20180;-70
2022/03/14 10:47:16;;;;;;;10.87;5.37;;;12.90;99.90;;;;;;4949024;28;20228;-70
2022/03/14 10:49:45;;;;;;;14.90;5.33;;;12.80;99.90;;;;;;4952046;28;20188;-71
2022/03/14 10:52:20;;;;;;;14.33;5.67;;;13.00;99.90;;;;;;4942962;28;20254;-71
2022/03/14 10:54:46;;;;;;;14.93;5.67;;;13.20;99.90;;;;;;4950436;28;21298;-70
2022/03/14 10:57:25;;;;;;;16.53;5.50;;;12.90;99.90;;;;;;4949246;28;20189;-71
2022/03/14 10:59:53;;;;;;;9.17;5.37;;;12.90;99.90;;;;;;4945979;28;20279;-71
2022/03/14 11:02:27;;;;;;;12.53;5.87;;;12.90;99.90;;;;;;4948632;28;20180;-70
2022/03/14 11:04:54;;;;;;;24.67;5.67;;;13.20;99.90;;;;;;4951918;28;20222;-70
2022/03/14 11:07:33;;;;;;;16.63;5.80;;;13.40;99.90;;;;;;4948308;28;20247;-70
2022/03/14 11:10:02;;;;;;;16.80;5.43;;;13.50;99.90;;;;;;4948058;28;20180;-71
2022/03/14 11:12:30;;;;;;;15.63;5.60;;;13.60;99.90;;;;;;4939381;28;20193;-70
2022/03/14 11:15:01;;;;;;;13.07;5.47;;;13.60;99.90;;;;;;4950225;28;20184;-71
2022/03/14 11:17:29;;;;;;;9.93;5.27;;;13.50;99.90;;;;;;4946113;28;20185;-71
2022/03/14 11:19:56;;;;;;;16.07;5.80;;;13.30;99.90;;;;;;4944875;28;20204;-70
2022/03/14 11:22:23;;;;;;;11.77;6.03;;;13.40;99.90;;;;;;4948649;28;20177;-70
2022/03/14 11:24:51;;;;;;;10.97;5.77;;;13.40;99.90;;;;;;4945632;28;20192;-70
2022/03/14 11:27:23;;;;;;;9.60;5.30;;;13.40;99.90;;;;;;4951565;28;20208;-70
2022/03/14 11:29:51;;;;;;;17.33;5.50;;;13.20;99.90;;;;;;4952846;28;20633;-70
2022/03/14 11:32:18;;;;;;;10.73;5.60;;;13.20;99.90;;;;;;4953595;28;20177;-69
2022/03/14 11:34:46;;;;;;;9.73;4.97;;;13.30;99.90;;;;;;4942318;28;20200;-70
2022/03/14 11:37:12;;;;;;;14.20;6.10;;;13.50;99.90;;;;;;4940150;29;20243;-69
2022/03/14 11:39:38;;;;;;;10.87;5.40;;;13.80;99.90;;;;;;4940913;28;20188;-69
2022/03/14 11:42:04;;;;;;;13.27;5.50;;;14.40;99.90;;;;;;4942965;28;20191;-69
2022/03/14 11:44:30;;;;;;;13.50;5.57;;;14.80;99.90;;;;;;4941435;28;20177;-69
2022/03/14 11:46:57;;;;;;;9.13;5.07;;;15.10;99.90;;;;;;4938313;29;20197;-70
2022/03/14 11:49:27;;;;;;;11.17;6.03;;;15.30;99.90;;;;;;4941800;28;20290;-70
2022/03/14 11:52:11;;;;;;;9.23;5.20;;;15.70;99.90;;;;;;4940060;28;20636;-71
2022/03/14 11:54:41;;;;;;;13.07;5.60;;;16.50;99.50;;;;;;4938984;29;20184;-71
2022/03/14 11:57:07;;;;;;;10.68;5.18;;;17.10;97.40;;;;;;4938182;29;20727;-71
2022/03/14 11:59:35;;;;;;;7.82;5.20;;;17.20;96.30;;;;;;4943166;28;20212;-71
2022/03/14 12:02:05;;;;;;;13.23;5.72;;;17.10;95.00;;;;;;4940814;29;20173;-68
2022/03/14 12:04:32;;;;;;;10.30;5.50;;;17.00;95.60;;;;;;4936003;29;20661;-71
2022/03/14 12:06:58;;;;;;;10.40;5.65;;;16.80;95.20;;;;;;4935984;28;20258;-70
2022/03/14 12:09:26;;;;;;;10.83;6.27;;;16.20;96.10;;;;;;4944382;28;20221;-70
2022/03/14 12:11:56;;;;;;;10.50;5.82;;;16.50;96.20;;;;;;4939308;29;20196;-70
2022/03/14 12:14:41;;;;;;;15.60;5.57;;;17.00;94.90;;;;;;4941261;29;20215;-69
2022/03/14 12:17:32;;;;;;;8.95;5.22;;;17.20;94.50;;;;;;4939090;28;20244;-70
2022/03/14 12:20:02;;;;;;;10.75;5.57;;;17.70;93.10;;;;;;4940460;29;20539;-71
2022/03/14 12:22:30;;;;;;;9.80;5.65;;;17.90;92.70;;;;;;4940382;29;20196;-70
2022/03/14 12:24:57;;;;;;;24.75;20.85;;;17.40;92.40;;;;;;4938723;29;20740;-71
2022/03/14 12:27:33;;;;;;;12.45;8.27;;;17.20;92.50;;;;;;4940140;29;20213;-70
2022/03/14 12:30:06;;;;;;;9.45;5.28;;;17.00;92.40;;;;;;4937559;29;20286;-69
2022/03/14 12:32:54;;;;;;;10.10;6.03;;;16.80;92.60;;;;;;4939733;29;20189;-70
2022/03/14 12:35:22;;;;;;;19.63;7.30;;;16.50;93.30;;;;;;4940585;29;20197;-70
2022/03/14 12:37:55;;;;;;;11.70;7.33;;;16.60;93.70;;;;;;4940701;28;20257;-69
2022/03/14 12:40:21;;;;;;;9.37;7.37;;;16.40;93.40;;;;;;4940380;29;20180;-69
2022/03/14 12:42:51;;;;;;;15.60;5.60;;;16.30;93.30;;;;;;4936926;29;20280;-69